Time;durP1;ratioP1;P1;durP2;ratioP2;P2;SDS_P1;SDS_P2;PMS_P1;PMS_P2;Temp;Humidity;BMP_temperature;BMP_pressure;BME280_temperature;BME280_humidity;BME280_pressure;Samples;Min_cycle;Max_cycle;Signal;HPM_P1;HPM_P2
2024/01/23 00:02:24;;;;;;;;;;;;;;;9.99;100.00;101068.97;5020660;28;717;-81
2024/01/23 00:04:50;;;;;;;;;;;;;;;9.91;100.00;101074.03;5020415;28;828;-81
2024/01/23 00:07:16;;;;;;;;;;;;;;;9.91;100.00;101074.03;5019933;28;1264;-81
2024/01/23 00:09:42;;;;;;;;;;;;;;;10.00;100.00;101117.09;5020577;28;1957;-81
2024/01/23 00:12:08;;;;;;;;;;;;;;;10.10;100.00;101152.09;5020362;28;878;-81
2024/01/23 00:14:34;;;;;;;;;;;;;;;10.16;100.00;101132.03;5019687;28;828;-82
2024/01/23 00:17:00;;;;;;;;;;;;;;;10.00;100.00;101137.66;5020778;28;1189;-81
2024/01/23 00:19:26;;;;;;;;;;;;;;;9.85;100.00;101128.94;5020620;28;785;-81
2024/01/23 00:21:52;;;;;;;;;;;;;;;9.63;100.00;101129.63;5020476;28;919;-81
2024/01/23 00:24:18;;;;;;;;;;;;;;;9.55;100.00;101126.66;5020559;28;844;-81
2024/01/23 00:26:44;;;;;;;;;;;;;;;9.52;100.00;101155.47;5019245;28;1181;-81
2024/01/23 00:29:10;;;;;;;;;;;;;;;9.46;100.00;101146.91;5019389;28;1886;-81
2024/01/23 00:31:37;;;;;;;;;;;;;;;9.43;100.00;101157.81;5019210;28;852;-81
2024/01/23 00:34:03;;;;;;;;;;;;;;;9.40;100.00;101138.44;5020259;28;872;-81
2024/01/23 00:36:29;;;;;;;;;;;;;;;9.31;100.00;101153.34;5019486;28;1198;-81
2024/01/23 00:38:55;;;;;;;;;;;;;;;9.31;100.00;101163.19;5019224;28;786;-81
2024/01/23 00:41:21;;;;;;;;;;;;;;;9.43;100.00;101156.97;5021226;28;808;-81
2024/01/23 00:43:47;;;;;;;;;;;;;;;9.49;100.00;101157.41;5020820;28;754;-81
2024/01/23 00:46:14;;;;;;;;;;;;;;;9.51;100.00;101162.63;5020020;28;1206;-81
2024/01/23 00:48:40;;;;;;;;;;;;;;;9.43;100.00;101173.88;5020899;28;1890;-81
2024/01/23 00:51:06;;;;;;;;;;;;;;;9.49;100.00;101175.28;5020540;28;942;-81
2024/01/23 00:53:32;;;;;;;;;;;;;;;9.55;100.00;101177.53;5020841;28;825;-81
2024/01/23 00:55:58;;;;;;;;;;;;;;;9.60;100.00;101175.38;5019757;28;1287;-81
2024/01/23 00:58:24;;;;;;;;;;;;;;;9.61;100.00;101177.09;5019772;28;852;-81
2024/01/23 01:00:50;;;;;;;;;;;;;;;9.68;100.00;101191.75;5020298;28;832;-81
2024/01/23 01:03:17;;;;;;;;;;;;;;;9.59;100.00;101172.81;5023469;28;800;-81
2024/01/23 01:05:43;;;;;;;;;;;;;;;9.70;100.00;101181.78;5023293;28;1166;-81
2024/01/23 01:08:10;;;;;;;;;;;;;;;9.71;100.00;101182.66;5024285;28;824;-81
2024/01/23 01:10:36;;;;;;;;;;;;;;;9.62;100.00;101184.16;5039138;28;1957;-81
2024/01/23 01:13:03;;;;;;;;;;;;;;;9.65;100.00;101191.13;5023934;28;736;-81
2024/01/23 01:15:30;;;;;;;;;;;;;;;9.68;100.00;101202.47;5023494;28;1185;-81
2024/01/23 01:17:56;;;;;;;;;;;;;;;9.69;100.00;101201.50;5025774;28;872;-81
2024/01/23 01:20:22;;;;;;;;;;;;;;;9.68;100.00;101198.94;5025182;28;968;-81
2024/01/23 01:22:48;;;;;;;;;;;;;;;9.76;100.00;101196.59;5025876;28;946;-81
2024/01/23 01:25:14;;;;;;;;;;;;;;;9.64;100.00;101202.81;5023936;28;906;-81
2024/01/23 01:27:40;;;;;;;;;;;;;;;9.71;100.00;101210.28;5025340;28;1178;-81
2024/01/23 01:30:07;;;;;;;;;;;;;;;9.72;100.00;101206.63;5024908;28;1906;-81
2024/01/23 01:32:33;;;;;;;;;;;;;;;9.57;100.00;101206.88;5024038;28;880;-81
2024/01/23 01:34:59;;;;;;;;;;;;;;;9.62;100.00;101213.63;5024041;28;833;-81
2024/01/23 01:37:25;;;;;;;;;;;;;;;9.70;100.00;101226.47;5039838;28;1181;-81
2024/01/23 01:39:51;;;;;;;;;;;;;;;9.68;100.00;101218.56;5024979;28;836;-81
2024/01/23 01:42:17;;;;;;;;;;;;;;;9.58;100.00;101213.94;5023952;28;935;-81
2024/01/23 01:44:43;;;;;;;;;;;;;;;9.63;100.00;101226.03;5023738;28;888;-81
2024/01/23 01:47:10;;;;;;;;;;;;;;;9.68;100.00;101220.38;5024125;28;1169;-81
2024/01/23 01:49:36;;;;;;;;;;;;;;;9.80;100.00;101226.69;5023609;28;1898;-81
2024/01/23 01:52:03;;;;;;;;;;;;;;;9.57;100.00;101212.25;5022541;28;890;-81
2024/01/23 01:54:30;;;;;;;;;;;;;;;9.44;100.00;101217.63;5022779;28;883;-81
2024/01/23 01:56:59;;;;;;;;;;;;;;;9.51;100.00;101226.06;5022776;28;1199;-81
2024/01/23 01:59:25;;;;;;;;;;;;;;;9.55;100.00;101243.63;5022347;28;877;-81
2024/01/23 02:01:52;;;;;;;;;;;;;;;9.65;100.00;101239.34;5023185;28;820;-81
2024/01/23 02:04:18;;;;;;;;;;;;;;;9.67;100.00;101242.78;5038540;28;821;-81
2024/01/23 02:06:46;;;;;;;;;;;;;;;9.68;100.00;101241.81;5037944;28;1213;-81
2024/01/23 02:09:12;;;;;;;;;;;;;;;9.66;100.00;101244.59;5039716;28;1894;-81
2024/01/23 02:12:05;;;;;;;;;;;;;;;9.69;100.00;101238.16;5022507;28;897;-81
2024/01/23 02:14:31;;;;;;;;;;;;;;;9.69;100.00;101243.50;5037124;28;931;-82
2024/01/23 02:16:57;;;;;;;;;;;;;;;9.70;100.00;101251.44;5022609;28;1204;-81
2024/01/23 02:19:25;;;;;;;;;;;;;;;9.66;100.00;101266.03;5038684;28;774;-81
2024/01/23 02:21:51;;;;;;;;;;;;;;;9.56;100.00;101272.13;5022894;28;895;-81
2024/01/23 02:24:18;;;;;;;;;;;;;;;9.71;100.00;101274.59;5038165;28;774;-81
2024/01/23 02:26:44;;;;;;;;;;;;;;;9.70;100.00;101270.19;5037333;28;1190;-81
2024/01/23 02:29:11;;;;;;;;;;;;;;;9.69;100.00;101281.88;5022623;28;1890;-81
2024/01/23 02:31:38;;;;;;;;;;;;;;;9.54;100.00;101272.25;5022773;28;872;-81
2024/01/23 02:34:04;;;;;;;;;;;;;;;9.47;100.00;101279.84;5023084;28;922;-81
2024/01/23 02:36:30;;;;;;;;;;;;;;;9.57;100.00;101279.19;5038061;28;1302;-81
2024/01/23 02:38:56;;;;;;;;;;;;;;;9.49;100.00;101277.03;5021720;28;771;-81
2024/01/23 02:41:22;;;;;;;;;;;;;;;9.57;100.00;101289.91;5023072;28;824;-81
2024/01/23 02:43:48;;;;;;;;;;;;;;;9.58;100.00;101288.94;5037844;28;837;-81
2024/01/23 02:46:14;;;;;;;;;;;;;;;9.66;100.00;101286.59;5022144;28;1177;-81
2024/01/23 02:48:40;;;;;;;;;;;;;;;9.67;100.00;101294.53;5022314;28;875;-81
2024/01/23 02:51:06;;;;;;;;;;;;;;;9.58;100.00;101300.50;5023155;28;1957;-81
2024/01/23 02:53:32;;;;;;;;;;;;;;;9.60;100.00;101301.25;5022636;28;797;-81
2024/01/23 02:55:58;;;;;;;;;;;;;;;9.58;100.00;101295.16;5021949;28;1193;-81
2024/01/23 02:58:25;;;;;;;;;;;;;;;9.64;100.00;101315.31;5021743;28;870;-81
2024/01/23 03:00:51;;;;;;;;;;;;;;;9.60;100.00;101320.00;5022565;28;781;-81
2024/01/23 03:03:17;;;;;;;;;;;;;;;9.74;100.00;101316.41;5022557;28;837;-81
2024/01/23 03:05:43;;;;;;;;;;;;;;;9.64;100.00;101328.72;5037706;28;1296;-82
2024/01/23 03:08:09;;;;;;;;;;;;;;;9.59;100.00;101322.78;5023953;28;542;-81
2024/01/23 03:10:35;;;;;;;;;;;;;;;9.70;100.00;101317.56;5024035;28;1973;-81
2024/01/23 03:13:02;;;;;;;;;;;;;;;9.64;100.00;101334.06;5024920;28;852;-81
2024/01/23 03:15:28;;;;;;;;;;;;;;;9.67;100.00;101345.41;5023482;28;1219;-81
2024/01/23 03:17:54;;;;;;;;;;;;;;;9.80;100.00;101342.75;5024020;28;856;-81
2024/01/23 03:20:20;;;;;;;;;;;;;;;9.76;100.00;101335.88;5023972;28;875;-81
2024/01/23 03:22:46;;;;;;;;;;;;;;;9.74;100.00;101351.22;5025686;28;922;-81
2024/01/23 03:25:12;;;;;;;;;;;;;;;9.68;100.00;101347.13;5024618;28;842;-81
2024/01/23 03:27:38;;;;;;;;;;;;;;;9.69;100.00;101350.66;5023956;28;1249;-81
2024/01/23 03:30:04;;;;;;;;;;;;;;;9.76;100.00;101346.59;5024101;28;1898;-81
2024/01/23 03:32:30;;;;;;;;;;;;;;;9.78;100.00;101366.97;5024830;28;823;-81
2024/01/23 03:34:56;;;;;;;;;;;;;;;9.83;100.00;101360.41;5024580;28;833;-81
2024/01/23 03:37:22;;;;;;;;;;;;;;;9.72;100.00;101353.13;5024634;28;1257;-81
2024/01/23 03:39:48;;;;;;;;;;;;;;;9.69;100.00;101377.44;5023731;28;934;-81
2024/01/23 03:42:14;;;;;;;;;;;;;;;9.76;100.00;101368.91;5022854;28;749;-82
2024/01/23 03:44:40;;;;;;;;;;;;;;;9.71;100.00;101371.03;5037309;28;809;-82
2024/01/23 03:47:06;;;;;;;;;;;;;;;9.70;100.00;101385.38;5021753;28;1268;-81
2024/01/23 03:49:32;;;;;;;;;;;;;;;9.75;100.00;101379.72;5021750;28;1928;-81
2024/01/23 03:51:58;;;;;;;;;;;;;;;9.76;100.00;101400.19;5022504;28;931;-81
2024/01/23 03:54:24;;;;;;;;;;;;;;;9.56;100.00;101393.50;5022113;28;753;-82
2024/01/23 03:56:50;;;;;;;;;;;;;;;9.68;100.00;101405.22;5020831;28;1211;-81
2024/01/23 03:59:16;;;;;;;;;;;;;;;9.45;100.00;101412.13;5022061;28;900;-81
2024/01/23 04:01:42;;;;;;;;;;;;;;;9.48;100.00;101404.72;5021632;28;753;-81
2024/01/23 04:04:08;;;;;;;;;;;;;;;9.67;100.00;101423.09;5022653;28;912;-81
2024/01/23 04:06:34;;;;;;;;;;;;;;;9.74;100.00;101427.09;5026431;28;1165;-81
2024/01/23 04:09:02;;;;;;;;;;;;;;;9.68;100.00;101427.50;5031949;28;1012;-81
2024/01/23 04:11:29;;;;;;;;;;;;;;;9.66;100.00;101433.91;5029165;28;1940;-82
2024/01/23 04:13:55;;;;;;;;;;;;;;;9.65;100.00;101442.94;5029391;28;820;-81
2024/01/23 04:16:21;;;;;;;;;;;;;;;9.69;100.00;101447.09;5026695;28;1218;-81
2024/01/23 04:18:47;;;;;;;;;;;;;;;9.57;100.00;101453.28;5029583;28;940;-81
2024/01/23 04:21:16;;;;;;;;;;;;;;;9.67;100.00;101460.59;5030128;28;812;-81
2024/01/23 04:23:42;;;;;;;;;;;;;;;9.77;100.00;101467.06;5031174;28;804;-81
2024/01/23 04:26:08;;;;;;;;;;;;;;;9.81;100.00;101472.19;5028843;28;1199;-81
2024/01/23 04:28:35;;;;;;;;;;;;;;;9.68;100.00;101472.16;5029368;28;762;-81
2024/01/23 04:31:01;;;;;;;;;;;;;;;9.71;100.00;101475.50;5026842;28;1934;-81
2024/01/23 04:33:27;;;;;;;;;;;;;;;9.69;100.00;101463.19;5024838;28;844;-81
2024/01/23 04:35:53;;;;;;;;;;;;;;;9.70;100.00;101465.75;5025201;28;1190;-81
2024/01/23 04:38:19;;;;;;;;;;;;;;;9.65;100.00;101473.25;5024968;28;816;-81
2024/01/23 04:40:45;;;;;;;;;;;;;;;9.60;100.00;101482.53;5025258;28;816;-81
2024/01/23 04:43:12;;;;;;;;;;;;;;;9.72;100.00;101474.53;5025589;28;880;-81
2024/01/23 04:45:38;;;;;;;;;;;;;;;9.72;100.00;101511.19;5024474;28;1304;-82
2024/01/23 04:48:04;;;;;;;;;;;;;;;9.81;100.00;101517.75;5025100;28;838;-82
2024/01/23 04:50:30;;;;;;;;;;;;;;;9.80;100.00;101535.66;5027019;28;1953;-81
2024/01/23 04:52:56;;;;;;;;;;;;;;;9.82;100.00;101528.38;5026060;28;754;-81
2024/01/23 04:55:23;;;;;;;;;;;;;;;9.79;100.00;101541.97;5026754;28;1198;-82
2024/01/23 04:57:49;;;;;;;;;;;;;;;9.73;100.00;101540.56;5028933;28;1349;-81
2024/01/23 05:00:17;;;;;;;;;;;;;;;9.61;100.00;101541.34;5028095;28;828;-82
2024/01/23 05:02:43;;;;;;;;;;;;;;;9.58;100.00;101549.59;5022591;28;792;-82
2024/01/23 05:05:09;;;;;;;;;;;;;;;9.80;100.00;101559.75;5022429;28;956;-82
2024/01/23 05:07:35;;;;;;;;;;;;;;;9.69;100.00;101555.13;5024576;28;1185;-82
2024/01/23 05:10:04;;;;;;;;;;;;;;;9.74;100.00;101569.09;5032373;28;1874;-81
2024/01/23 05:12:30;;;;;;;;;;;;;;;9.82;100.00;101568.56;5038545;28;879;-81
2024/01/23 05:14:56;;;;;;;;;;;;;;;9.83;100.00;101575.63;5038147;28;1067;-82
2024/01/23 05:17:22;;;;;;;;;;;;;;;9.86;100.00;101562.06;5024031;28;1177;-81
2024/01/23 05:19:48;;;;;;;;;;;;;;;9.80;100.00;101575.84;5020552;28;797;-81
2024/01/23 05:22:14;;;;;;;;;;;;;;;9.88;100.00;101583.38;5020160;28;824;-81
2024/01/23 05:24:41;;;;;;;;;;;;;;;9.90;100.00;101584.13;5019596;28;781;-81
2024/01/23 05:27:09;;;;;;;;;;;;;;;9.81;100.00;101584.75;5019581;28;1205;-81
2024/01/23 05:29:35;;;;;;;;;;;;;;;9.81;100.00;101601.66;5020774;28;1883;-81
2024/01/23 05:32:01;;;;;;;;;;;;;;;9.84;100.00;101600.63;5019814;28;923;-81
2024/01/23 05:34:27;;;;;;;;;;;;;;;9.90;100.00;101611.78;5020182;28;825;-82
2024/01/23 05:36:53;;;;;;;;;;;;;;;9.83;100.00;101620.31;5019916;28;1177;-81
2024/01/23 05:39:19;;;;;;;;;;;;;;;9.84;100.00;101630.09;5020163;28;670;-81
2024/01/23 05:41:45;;;;;;;;;;;;;;;9.69;100.00;101639.97;5035740;28;837;-81
2024/01/23 05:44:11;;;;;;;;;;;;;;;9.81;100.00;101641.88;5020205;28;832;-81
2024/01/23 05:46:37;;;;;;;;;;;;;;;9.91;100.00;101650.16;5019145;28;1261;-81
2024/01/23 05:49:03;;;;;;;;;;;;;;;10.00;100.00;101657.63;5022801;28;829;-81
2024/01/23 05:51:29;;;;;;;;;;;;;;;9.92;100.00;101676.88;5022164;28;1948;-81
2024/01/23 05:53:55;;;;;;;;;;;;;;;9.94;100.00;101683.00;5023899;28;817;-81
2024/01/23 05:56:21;;;;;;;;;;;;;;;9.89;100.00;101684.25;5038279;28;1237;-81
2024/01/23 05:58:47;;;;;;;;;;;;;;;9.91;100.00;101695.72;5023772;28;805;-81
2024/01/23 06:01:13;;;;;;;;;;;;;;;9.98;100.00;101687.19;5039123;28;848;-81
2024/01/23 06:03:39;;;;;;;;;;;;;;;9.93;100.00;101694.69;5023534;28;753;-82
2024/01/23 06:06:06;;;;;;;;;;;;;;;9.93;100.00;101700.06;5020697;28;1193;-81
2024/01/23 06:08:32;;;;;;;;;;;;;;;10.00;100.00;101700.50;5022028;28;875;-81
2024/01/23 06:10:58;;;;;;;;;;;;;;;9.95;100.00;101719.56;5022193;28;1875;-81
2024/01/23 06:13:27;;;;;;;;;;;;;;;9.92;100.00;101721.56;5020287;28;895;-81
2024/01/23 06:15:53;;;;;;;;;;;;;;;10.03;100.00;101730.66;5020185;28;1217;-81
2024/01/23 06:18:19;;;;;;;;;;;;;;;9.99;100.00;101726.44;5022106;28;816;-81
2024/01/23 06:20:45;;;;;;;;;;;;;;;9.99;100.00;101745.22;5023284;28;847;-81
2024/01/23 06:23:11;;;;;;;;;;;;;;;9.89;100.00;101741.38;5023200;28;863;-81
2024/01/23 06:25:37;;;;;;;;;;;;;;;10.01;100.00;101745.97;5022498;28;1269;-81
2024/01/23 06:28:03;;;;;;;;;;;;;;;9.82;100.00;101731.16;5022928;28;785;-81
2024/01/23 06:30:29;;;;;;;;;;;;;;;10.03;100.00;101746.75;5022942;28;1922;-81
2024/01/23 06:32:55;;;;;;;;;;;;;;;10.11;100.00;101748.06;5023344;28;796;-81
2024/01/23 06:35:21;;;;;;;;;;;;;;;10.12;100.00;101758.69;5022644;28;1311;-81
2024/01/23 06:37:47;;;;;;;;;;;;;;;10.08;100.00;101778.63;5023158;28;735;-81
2024/01/23 06:40:13;;;;;;;;;;;;;;;10.10;100.00;101774.00;5023413;28;829;-81
2024/01/23 06:42:39;;;;;;;;;;;;;;;10.18;100.00;101786.94;5023389;28;859;-81
2024/01/23 06:45:05;;;;;;;;;;;;;;;10.21;100.00;101787.59;5022690;28;895;-80
2024/01/23 06:47:31;;;;;;;;;;;;;;;10.17;100.00;101788.75;5016587;28;3245;-82
2024/01/23 06:49:57;;;;;;;;;;;;;;;10.17;100.00;101793.25;5023860;28;1897;-82
2024/01/23 06:52:23;;;;;;;;;;;;;;;10.05;100.00;101806.47;5021977;28;793;-82
2024/01/23 06:54:49;;;;;;;;;;;;;;;10.12;100.00;101812.28;5021413;28;876;-82
2024/01/23 06:57:15;;;;;;;;;;;;;;;10.14;100.00;101810.41;5022438;28;1288;-82
2024/01/23 06:59:42;;;;;;;;;;;;;;;10.05;100.00;101811.84;5022246;28;801;-82
2024/01/23 07:02:08;;;;;;;;;;;;;;;9.95;100.00;101831.28;5020983;28;745;-83
2024/01/23 07:04:34;;;;;;;;;;;;;;;10.05;100.00;101843.16;5001349;28;2356;-83
2024/01/23 07:06:59;;;;;;;;;;;;;;;10.12;100.00;101835.56;4997958;28;1344;-84
2024/01/23 07:09:25;;;;;;;;;;;;;;;10.01;100.00;101847.81;4999015;28;746;-82
2024/01/23 07:11:53;;;;;;;;;;;;;;;10.11;100.00;101857.97;4998978;28;1894;-83
2024/01/23 07:14:19;;;;;;;;;;;;;;;10.06;100.00;101851.09;4997822;28;841;-83
2024/01/23 07:16:45;;;;;;;;;;;;;;;10.07;100.00;101855.50;4998620;28;1281;-81
2024/01/23 07:19:11;;;;;;;;;;;;;;;10.16;100.00;101854.06;5002007;28;817;-81
2024/01/23 07:21:40;;;;;;;;;;;;;;;10.08;100.00;101856.34;5001649;28;817;-81
2024/01/23 07:24:09;;;;;;;;;;;;;;;10.17;100.00;101866.50;5000930;28;892;-81
2024/01/23 07:26:35;;;;;;;;;;;;;;;10.15;100.00;101880.97;5000362;28;1221;-81
2024/01/23 07:29:04;;;;;;;;;;;;;;;10.13;100.00;101885.53;5000915;28;817;-81
2024/01/23 07:31:30;;;;;;;;;;;;;;;10.06;100.00;101895.81;5000624;28;1899;-81
2024/01/23 07:33:57;;;;;;;;;;;;;;;10.21;100.00;101894.84;5001346;28;820;-82
2024/01/23 07:36:23;;;;;;;;;;;;;;;10.16;100.00;101906.81;5000135;28;1203;-81
2024/01/23 07:38:49;;;;;;;;;;;;;;;10.13;100.00;101913.25;5001703;28;790;-81
2024/01/23 07:41:16;;;;;;;;;;;;;;;10.22;100.00;101911.81;5001009;28;860;-81
2024/01/23 07:43:42;;;;;;;;;;;;;;;10.20;100.00;101914.56;5000566;28;801;-81
2024/01/23 07:46:08;;;;;;;;;;;;;;;10.16;100.00;101929.13;5000066;28;1264;-81
2024/01/23 07:48:34;;;;;;;;;;;;;;;10.24;100.00;101939.44;5000262;28;730;-81
2024/01/23 07:51:00;;;;;;;;;;;;;;;10.28;100.00;101935.59;5001037;28;1890;-81
2024/01/23 07:53:29;;;;;;;;;;;;;;;10.30;100.00;101944.38;5000243;28;801;-81
2024/01/23 07:55:55;;;;;;;;;;;;;;;10.26;100.00;101941.03;4999740;28;1217;-81
2024/01/23 07:58:21;;;;;;;;;;;;;;;10.26;100.00;101958.97;4999987;28;836;-82
2024/01/23 08:00:47;;;;;;;;;;;;;;;10.26;100.00;101954.47;4999595;28;842;-81
2024/01/23 08:03:13;;;;;;;;;;;;;;;10.23;100.00;101964.53;4999837;28;833;-82
2024/01/23 08:05:40;;;;;;;;;;;;;;;10.20;100.00;101970.88;4997616;28;1297;-81
2024/01/23 08:08:06;;;;;;;;;;;;;;;10.21;100.00;101969.06;5001083;28;541;-81
2024/01/23 08:10:34;;;;;;;;;;;;;;;10.20;100.00;101980.75;4999484;28;1903;-82
2024/01/23 08:13:00;;;;;;;;;;;;;;;10.25;100.00;101989.41;4999920;28;869;-81
2024/01/23 08:15:26;;;;;;;;;;;;;;;10.23;100.00;102002.06;4999846;28;1327;-82
2024/01/23 08:17:52;;;;;;;;;;;;;;;10.27;100.00;102017.84;5000277;28;901;-82
2024/01/23 08:20:18;;;;;;;;;;;;;;;10.22;100.00;102014.56;5000802;28;856;-81
2024/01/23 08:22:44;;;;;;;;;;;;;;;10.13;100.00;102014.22;5001609;28;891;-81
2024/01/23 08:25:10;;;;;;;;;;;;;;;10.18;100.00;102013.00;4999979;28;883;-81
2024/01/23 08:27:36;;;;;;;;;;;;;;;10.22;100.00;102014.56;4998441;28;1201;-81
2024/01/23 08:30:02;;;;;;;;;;;;;;;10.14;100.00;102024.03;4999507;28;849;-81
2024/01/23 08:32:28;;;;;;;;;;;;;;;10.11;100.00;102026.88;4999055;28;1894;-80
2024/01/23 08:34:55;;;;;;;;;;;;;;;10.20;100.00;102024.50;4998519;28;797;-81
2024/01/23 08:37:20;;;;;;;;;;;;;;;10.20;100.00;102042.41;4998845;28;1162;-81
2024/01/23 08:39:46;;;;;;;;;;;;;;;10.05;100.00;102052.25;4999372;28;900;-81
2024/01/23 08:42:13;;;;;;;;;;;;;;;9.98;100.00;102056.22;5000070;28;821;-81
2024/01/23 08:44:43;;;;;;;;;;;;;;;9.98;100.00;102059.78;4999421;28;876;-81
2024/01/23 08:47:09;;;;;;;;;;;;;;;10.12;100.00;102071.50;5000649;28;1691;-81
2024/01/23 08:49:35;;;;;;;;;;;;;;;10.06;100.00;102065.56;4999938;28;915;-80
2024/01/23 08:52:01;;;;;;;;;;;;;;;10.13;100.00;102071.44;5000006;28;1894;-81
2024/01/23 08:54:27;;;;;;;;;;;;;;;10.12;100.00;102066.13;4999105;28;801;-81
2024/01/23 08:56:56;;;;;;;;;;;;;;;10.14;100.00;102072.28;4999582;28;1290;-81
2024/01/23 08:59:22;;;;;;;;;;;;;;;10.09;100.00;102082.41;4999942;28;789;-81
2024/01/23 09:01:48;;;;;;;;;;;;;;;10.13;100.00;102076.78;5000513;28;816;-81
2024/01/23 09:04:14;;;;;;;;;;;;;;;10.20;100.00;102085.31;4999019;28;789;-81
2024/01/23 09:06:40;;;;;;;;;;;;;;;10.15;100.00;102090.97;4998888;28;1185;-81
2024/01/23 09:09:06;;;;;;;;;;;;;;;10.19;100.00;102084.44;5014452;28;896;-81
2024/01/23 09:11:32;;;;;;;;;;;;;;;10.16;100.00;102091.81;4999995;28;1903;-81
2024/01/23 09:13:58;;;;;;;;;;;;;;;10.25;100.00;102094.00;5000095;28;820;-81
2024/01/23 09:16:24;;;;;;;;;;;;;;;10.25;100.00;102097.53;4999949;28;1296;-81
2024/01/23 09:18:50;;;;;;;;;;;;;;;10.32;100.00;102095.34;5000373;28;852;-81
2024/01/23 09:21:17;;;;;;;;;;;;;;;10.39;100.00;102093.16;5000493;28;856;-81
2024/01/23 09:23:43;;;;;;;;;;;;;;;10.31;100.00;102120.44;5003060;28;801;-81
2024/01/23 09:26:11;;;;;;;;;;;;;;;10.26;100.00;102110.00;5003549;28;1209;-81
2024/01/23 09:28:37;;;;;;;;;;;;;;;10.38;100.00;102099.50;5002714;28;798;-81
2024/01/23 09:31:03;;;;;;;;;;;;;;;10.35;100.00;102103.22;5003987;28;1882;-82
2024/01/23 09:33:29;;;;;;;;;;;;;;;10.30;100.00;102116.88;5004709;28;734;-81
2024/01/23 09:35:55;;;;;;;;;;;;;;;10.25;100.00;102112.78;5003249;28;1278;-81
2024/01/23 09:38:21;;;;;;;;;;;;;;;10.37;100.00;102127.28;5003651;28;852;-81
2024/01/23 09:40:49;;;;;;;;;;;;;;;10.37;100.00;102127.28;5003574;28;931;-81
2024/01/23 09:43:19;;;;;;;;;;;;;;;10.19;100.00;102145.25;5003835;28;805;-82
2024/01/23 09:45:47;;;;;;;;;;;;;;;10.33;100.00;102137.31;5003449;28;1284;-81
2024/01/23 09:48:15;;;;;;;;;;;;;;;10.37;100.00;102144.22;5004793;28;888;-81
2024/01/23 09:50:42;;;;;;;;;;;;;;;10.46;100.00;102140.13;5004165;28;879;-81
2024/01/23 09:53:10;;;;;;;;;;;;;;;10.52;100.00;102150.47;5003269;28;1894;-81
2024/01/23 09:55:36;;;;;;;;;;;;;;;10.54;100.00;102152.16;5002726;28;1308;-81
2024/01/23 09:58:03;;;;;;;;;;;;;;;10.48;100.00;102162.38;5003571;28;844;-81
2024/01/23 10:00:29;;;;;;;;;;;;;;;10.54;100.00;102160.19;5003593;28;916;-81
2024/01/23 10:02:56;;;;;;;;;;;;;;;10.44;100.00;102168.88;5003943;28;785;-81
2024/01/23 10:05:22;;;;;;;;;;;;;;;10.51;100.00;102186.31;5002521;28;1284;-81
2024/01/23 10:07:48;;;;;;;;;;;;;;;10.58;100.00;102175.16;5002874;28;622;-81
2024/01/23 10:10:17;;;;;;;;;;;;;;;10.49;100.00;102177.50;5004783;28;932;-81
2024/01/23 10:12:46;;;;;;;;;;;;;;;10.50;100.00;102174.72;5004514;28;1898;-81
2024/01/23 10:15:16;;;;;;;;;;;;;;;10.45;100.00;102176.84;5004079;28;840;-82
2024/01/23 10:17:44;;;;;;;;;;;;;;;10.55;100.00;102180.69;5004556;28;1284;-81
2024/01/23 10:20:11;;;;;;;;;;;;;;;10.64;100.00;102171.25;5004331;28;793;-82
2024/01/23 10:22:37;;;;;;;;;;;;;;;10.73;100.00;102178.75;5018796;28;771;-82
2024/01/23 10:25:08;;;;;;;;;;;;;;;10.70;100.00;102181.59;5003018;28;844;-82
2024/01/23 10:27:34;;;;;;;;;;;;;;;10.69;100.00;102163.78;5001483;28;1265;-81
2024/01/23 10:30:00;;;;;;;;;;;;;;;10.74;100.00;102161.69;5002111;28;884;-81
2024/01/23 10:32:28;;;;;;;;;;;;;;;10.66;100.00;102169.31;5002573;28;1898;-81
2024/01/23 10:34:55;;;;;;;;;;;;;;;10.76;100.00;102167.81;5000916;28;828;-81
2024/01/23 10:37:21;;;;;;;;;;;;;;;10.75;100.00;102157.19;5001441;28;1221;-81
2024/01/23 10:39:51;;;;;;;;;;;;;;;10.89;100.00;102165.25;5002445;28;750;-81
2024/01/23 10:42:20;;;;;;;;;;;;;;;10.81;100.00;102164.84;5003540;28;814;-81
2024/01/23 10:44:50;;;;;;;;;;;;;;;10.80;100.00;102172.03;5002954;28;817;-82
2024/01/23 10:47:18;;;;;;;;;;;;;;;10.82;100.00;102159.41;5004591;28;1206;-82
2024/01/23 10:49:46;;;;;;;;;;;;;;;11.01;100.00;102153.78;5002675;28;858;-81
2024/01/23 10:52:17;;;;;;;;;;;;;;;10.97;100.00;102175.53;5003414;28;1890;-82
2024/01/23 10:54:45;;;;;;;;;;;;;;;10.98;100.00;102172.75;5009622;28;792;-82
2024/01/23 10:57:24;;;;;;;;;;;;;;;11.04;100.00;102171.53;5009616;28;1165;-81
2024/01/23 10:59:51;;;;;;;;;;;;;;;10.88;100.00;102187.69;5010136;28;638;-81
2024/01/23 11:02:31;;;;;;;;;;;;;;;10.93;100.00;102174.88;5007063;28;890;-81
2024/01/23 11:04:58;;;;;;;;;;;;;;;10.94;100.00;102189.16;5018200;28;1023;-81
2024/01/23 11:07:30;;;;;;;;;;;;;;;10.91;100.00;102185.69;5000376;28;1293;-81
2024/01/23 11:10:33;;;;;;;;;;;;;;;10.88;100.00;102185.00;5016642;28;1410;-82
2024/01/23 11:13:10;;;;;;;;;;;;;;;10.88;100.00;102185.88;5016543;28;1906;-81
2024/01/23 11:15:37;;;;;;;;;;;;;;;10.97;100.00;102194.31;5016522;28;1281;-81
2024/01/23 11:18:29;;;;;;;;;;;;;;;10.83;100.00;102181.75;5016336;28;868;-81
2024/01/23 11:21:04;;;;;;;;;;;;;;;10.63;100.00;102191.00;5010008;28;755;-81
2024/01/23 11:23:36;;;;;;;;;;;;;;;10.77;100.00;102187.47;5017135;28;1003;-81
2024/01/23 11:26:06;;;;;;;;;;;;;;;10.74;100.00;102190.34;5000854;28;1278;-81
2024/01/23 11:28:35;;;;;;;;;;;;;;;10.69;100.00;102187.91;5000959;28;883;-81
2024/01/23 11:31:11;;;;;;;;;;;;;;;10.73;100.00;102196.66;5015697;28;916;-81
2024/01/23 11:33:37;;;;;;;;;;;;;;;10.80;100.00;102201.56;5000902;28;1894;-81
2024/01/23 11:36:07;;;;;;;;;;;;;;;10.72;100.00;102205.69;5015429;28;1189;-81
2024/01/23 11:38:48;;;;;;;;;;;;;;;10.84;100.00;102200.44;5016290;28;805;-81
2024/01/23 11:41:24;;;;;;;;;;;;;;;10.87;100.00;102185.97;4999607;28;936;-81
2024/01/23 11:43:55;;;;;;;;;;;;;;;10.86;100.00;102189.59;5016626;28;928;-81
2024/01/23 11:46:23;;;;;;;;;;;;;;;10.78;100.00;102191.88;5000396;28;1252;-81
2024/01/23 11:48:50;;;;;;;;;;;;;;;10.78;100.00;102187.38;5000954;28;872;-81
2024/01/23 11:51:17;;;;;;;;;;;;;;;10.76;100.00;102196.47;5001402;28;896;-81
2024/01/23 11:53:45;;;;;;;;;;;;;;;10.95;100.00;102193.56;5000920;28;1970;-81
2024/01/23 11:56:12;;;;;;;;;;;;;;;11.02;100.00;102202.97;5000550;28;1201;-81
2024/01/23 11:58:41;;;;;;;;;;;;;;;11.07;100.00;102190.97;5000767;28;797;-81
2024/01/23 12:01:08;;;;;;;;;;;;;;;11.04;100.00;102176.88;5000219;28;829;-81
2024/01/23 12:03:35;;;;;;;;;;;;;;;11.00;100.00;102176.19;5000617;28;808;-81
2024/01/23 12:06:02;;;;;;;;;;;;;;;11.08;100.00;102175.72;4999647;28;1226;-81
2024/01/23 12:08:28;;;;;;;;;;;;;;;10.94;100.00;102170.34;5000354;28;710;-81
2024/01/23 12:10:56;;;;;;;;;;;;;;;11.00;100.00;102186.06;5000601;28;911;-81
2024/01/23 12:13:23;;;;;;;;;;;;;;;10.99;100.00;102171.78;5000150;28;1895;-82
2024/01/23 12:15:49;;;;;;;;;;;;;;;11.04;100.00;102167.00;4999946;28;1314;-81
2024/01/23 12:18:19;;;;;;;;;;;;;;;10.84;100.00;102160.19;5000670;28;919;-81
2024/01/23 12:20:56;;;;;;;;;;;;;;;11.01;100.00;102144.84;5015631;28;803;-81
2024/01/23 12:23:26;;;;;;;;;;;;;;;10.98;100.00;102147.72;5000728;28;705;-81
2024/01/23 12:25:54;;;;;;;;;;;;;;;10.96;100.00;102138.91;4999804;28;1198;-82
2024/01/23 12:28:21;;;;;;;;;;;;;;;11.11;100.00;102130.78;5000526;28;871;-81
2024/01/23 12:30:48;;;;;;;;;;;;;;;11.12;100.00;102135.19;5000035;28;817;-81
2024/01/23 12:33:15;;;;;;;;;;;;;;;10.93;100.00;102139.97;5000839;28;1898;-82
2024/01/23 12:35:42;;;;;;;;;;;;;;;10.97;100.00;102152.22;5013651;28;1218;-81
2024/01/23 12:38:08;;;;;;;;;;;;;;;11.03;100.00;102140.25;4999225;28;789;-81
2024/01/23 12:40:35;;;;;;;;;;;;;;;10.91;100.00;102163.31;4999007;28;829;-82
2024/01/23 12:43:01;;;;;;;;;;;;;;;10.99;100.00;102158.38;4998844;28;804;-81
2024/01/23 12:45:27;;;;;;;;;;;;;;;11.09;100.00;102155.97;4998448;28;1260;-81
2024/01/23 12:47:54;;;;;;;;;;;;;;;11.09;100.00;102151.47;4999288;28;895;-81